sensor_id;sensor_type;location;lat;lon;timestamp;temperature;humidity
14908;DHT22;7545;52.092;7.006;2023-04-24T00:00:01;12.40;99.90
14908;DHT22;7545;52.092;7.006;2023-04-24T00:02:28;12.40;99.90
14908;DHT22;7545;52.092;7.006;2023-04-24T00:04:54;12.40;99.90
14908;DHT22;7545;52.092;7.006;2023-04-24T00:07:19;12.40;99.90
14908;DHT22;7545;52.092;7.006;2023-04-24T00:09:46;12.40;99.90
14908;DHT22;7545;52.092;7.006;2023-04-24T00:12:11;12.40;99.90
14908;DHT22;7545;52.092;7.006;2023-04-24T00:14:37;12.40;99.90
14908;DHT22;7545;52.092;7.006;2023-04-24T00:17:03;12.40;99.90
14908;DHT22;7545;52.092;7.006;2023-04-24T00:19:29;12.40;99.90
14908;DHT22;7545;52.092;7.006;2023-04-24T00:21:55;12.30;99.90
14908;DHT22;7545;52.092;7.006;2023-04-24T00:24:21;12.30;99.90
14908;DHT22;7545;52.092;7.006;2023-04-24T00:26:46;12.40;99.90
14908;DHT22;7545;52.092;7.006;2023-04-24T00:29:12;12.30;99.90
14908;DHT22;7545;52.092;7.006;2023-04-24T00:31:38;12.30;99.90
14908;DHT22;7545;52.092;7.006;2023-04-24T00:34:04;12.30;99.90
14908;DHT22;7545;52.092;7.006;2023-04-24T00:36:30;12.30;99.90
14908;DHT22;7545;52.092;7.006;2023-04-24T00:38:56;12.30;99.90
14908;DHT22;7545;52.092;7.006;2023-04-24T00:41:23;12.30;99.90
14908;DHT22;7545;52.092;7.006;2023-04-24T00:43:49;12.40;99.90
14908;DHT22;7545;52.092;7.006;2023-04-24T00:46:16;12.30;99.90
14908;DHT22;7545;52.092;7.006;2023-04-24T00:48:42;12.30;99.90
14908;DHT22;7545;52.092;7.006;2023-04-24T00:51:08;12.30;99.90
14908;DHT22;7545;52.092;7.006;2023-04-24T00:53:34;12.30;99.90
14908;DHT22;7545;52.092;7.006;2023-04-24T00:56:00;12.30;99.90
14908;DHT22;7545;52.092;7.006;2023-04-24T00:58:25;12.30;99.90
14908;DHT22;7545;52.092;7.006;2023-04-24T01:00:52;12.30;99.90
14908;DHT22;7545;52.092;7.006;2023-04-24T01:03:25;12.20;99.90
14908;DHT22;7545;52.092;7.006;2023-04-24T01:05:52;12.30;99.90
14908;DHT22;7545;52.092;7.006;2023-04-24T01:08:19;12.20;99.90
14908;DHT22;7545;52.092;7.006;2023-04-24T01:10:46;12.20;99.90
14908;DHT22;7545;52.092;7.006;2023-04-24T01:13:13;12.20;99.90
14908;DHT22;7545;52.092;7.006;2023-04-24T01:15:39;12.20;99.90
14908;DHT22;7545;52.092;7.006;2023-04-24T01:18:04;12.20;99.90
14908;DHT22;7545;52.092;7.006;2023-04-24T01:20:31;12.20;99.90
14908;DHT22;7545;52.092;7.006;2023-04-24T01:22:57;12.20;99.90
14908;DHT22;7545;52.092;7.006;2023-04-24T01:25:24;12.10;99.90
14908;DHT22;7545;52.092;7.006;2023-04-24T01:27:50;12.20;99.90
14908;DHT22;7545;52.092;7.006;2023-04-24T01:30:16;12.20;99.90
14908;DHT22;7545;52.092;7.006;2023-04-24T01:32:43;12.20;99.90
14908;DHT22;7545;52.092;7.006;2023-04-24T01:35:10;12.20;99.90
14908;DHT22;7545;52.092;7.006;2023-04-24T01:37:36;12.20;99.90
14908;DHT22;7545;52.092;7.006;2023-04-24T01:40:08;12.20;99.90
14908;DHT22;7545;52.092;7.006;2023-04-24T01:42:34;12.20;99.90
14908;DHT22;7545;52.092;7.006;2023-04-24T01:45:02;12.10;99.90
14908;DHT22;7545;52.092;7.006;2023-04-24T01:47:30;12.10;99.90
14908;DHT22;7545;52.092;7.006;2023-04-24T01:49:56;12.10;99.90
14908;DHT22;7545;52.092;7.006;2023-04-24T01:52:22;12.20;99.90
14908;DHT22;7545;52.092;7.006;2023-04-24T01:54:47;12.20;99.90
14908;DHT22;7545;52.092;7.006;2023-04-24T01:57:14;12.20;99.90
14908;DHT22;7545;52.092;7.006;2023-04-24T01:59:41;12.20;99.90
14908;DHT22;7545;52.092;7.006;2023-04-24T02:02:07;12.20;99.90
14908;DHT22;7545;52.092;7.006;2023-04-24T02:04:32;12.10;99.90
14908;DHT22;7545;52.092;7.006;2023-04-24T02:06:58;12.10;99.90
14908;DHT22;7545;52.092;7.006;2023-04-24T02:09:24;12.10;99.90
14908;DHT22;7545;52.092;7.006;2023-04-24T02:11:50;12.10;99.90
14908;DHT22;7545;52.092;7.006;2023-04-24T02:14:15;12.10;99.90
14908;DHT22;7545;52.092;7.006;2023-04-24T02:16:41;12.00;99.90
14908;DHT22;7545;52.092;7.006;2023-04-24T02:19:07;12.10;99.90
14908;DHT22;7545;52.092;7.006;2023-04-24T02:21:32;12.00;99.90
14908;DHT22;7545;52.092;7.006;2023-04-24T02:23:58;12.10;99.90
14908;DHT22;7545;52.092;7.006;2023-04-24T02:26:24;12.10;99.90
14908;DHT22;7545;52.092;7.006;2023-04-24T02:28:53;12.00;99.90
14908;DHT22;7545;52.092;7.006;2023-04-24T02:31:24;12.00;99.90
14908;DHT22;7545;52.092;7.006;2023-04-24T02:33:53;12.00;99.90
14908;DHT22;7545;52.092;7.006;2023-04-24T02:36:18;12.00;99.90
14908;DHT22;7545;52.092;7.006;2023-04-24T02:38:44;12.00;99.90
14908;DHT22;7545;52.092;7.006;2023-04-24T02:41:09;11.90;99.90
14908;DHT22;7545;52.092;7.006;2023-04-24T02:43:35;11.90;99.90
14908;DHT22;7545;52.092;7.006;2023-04-24T02:46:01;11.90;99.90
14908;DHT22;7545;52.092;7.006;2023-04-24T02:48:27;11.90;99.90
14908;DHT22;7545;52.092;7.006;2023-04-24T02:50:53;11.90;99.90
14908;DHT22;7545;52.092;7.006;2023-04-24T02:53:18;11.90;99.90
14908;DHT22;7545;52.092;7.006;2023-04-24T02:55:44;11.90;99.90
14908;DHT22;7545;52.092;7.006;2023-04-24T02:58:10;11.80;99.90
14908;DHT22;7545;52.092;7.006;2023-04-24T03:00:38;11.80;99.90
14908;DHT22;7545;52.092;7.006;2023-04-24T03:03:03;11.80;99.90
14908;DHT22;7545;52.092;7.006;2023-04-24T03:05:29;11.80;99.90
14908;DHT22;7545;52.092;7.006;2023-04-24T03:07:56;11.80;99.90
14908;DHT22;7545;52.092;7.006;2023-04-24T03:10:22;11.80;99.90
14908;DHT22;7545;52.092;7.006;2023-04-24T03:12:50;11.80;99.90
14908;DHT22;7545;52.092;7.006;2023-04-24T03:15:16;11.80;99.90
14908;DHT22;7545;52.092;7.006;2023-04-24T03:17:41;11.80;99.90
14908;DHT22;7545;52.092;7.006;2023-04-24T03:20:09;11.80;99.90
14908;DHT22;7545;52.092;7.006;2023-04-24T03:22:35;11.80;99.90
14908;DHT22;7545;52.092;7.006;2023-04-24T03:25:01;11.80;99.90
14908;DHT22;7545;52.092;7.006;2023-04-24T03:27:27;11.70;99.90
14908;DHT22;7545;52.092;7.006;2023-04-24T03:29:52;11.70;99.90
14908;DHT22;7545;52.092;7.006;2023-04-24T03:32:21;11.70;99.90
14908;DHT22;7545;52.092;7.006;2023-04-24T03:34:50;11.70;99.90
14908;DHT22;7545;52.092;7.006;2023-04-24T03:37:16;11.60;99.90
14908;DHT22;7545;52.092;7.006;2023-04-24T03:39:43;11.60;99.90
14908;DHT22;7545;52.092;7.006;2023-04-24T03:42:08;11.60;99.90
14908;DHT22;7545;52.092;7.006;2023-04-24T03:44:35;11.60;99.90
14908;DHT22;7545;52.092;7.006;2023-04-24T03:47:00;11.50;99.90
14908;DHT22;7545;52.092;7.006;2023-04-24T03:49:26;11.50;99.90
14908;DHT22;7545;52.092;7.006;2023-04-24T03:51:52;11.50;99.90
14908;DHT22;7545;52.092;7.006;2023-04-24T03:54:21;11.50;99.90
14908;DHT22;7545;52.092;7.006;2023-04-24T03:56:47;11.50;99.90
14908;DHT22;7545;52.092;7.006;2023-04-24T03:59:12;11.50;99.90
14908;DHT22;7545;52.092;7.006;2023-04-24T04:01:38;11.50;99.90
14908;DHT22;7545;52.092;7.006;2023-04-24T04:04:05;11.50;99.90
14908;DHT22;7545;52.092;7.006;2023-04-24T04:06:31;11.50;99.90
14908;DHT22;7545;52.092;7.006;2023-04-24T04:08:58;11.50;99.90
14908;DHT22;7545;52.092;7.006;2023-04-24T04:11:23;11.50;99.90
14908;DHT22;7545;52.092;7.006;2023-04-24T04:13:49;11.50;99.90
14908;DHT22;7545;52.092;7.006;2023-04-24T04:16:15;11.50;99.90
14908;DHT22;7545;52.092;7.006;2023-04-24T04:18:44;11.50;99.90
14908;DHT22;7545;52.092;7.006;2023-04-24T04:21:10;11.50;99.90
14908;DHT22;7545;52.092;7.006;2023-04-24T04:23:36;11.50;99.90
14908;DHT22;7545;52.092;7.006;2023-04-24T04:26:03;11.50;99.90
14908;DHT22;7545;52.092;7.006;2023-04-24T04:28:29;11.50;99.90
14908;DHT22;7545;52.092;7.006;2023-04-24T04:30:56;11.40;99.90
14908;DHT22;7545;52.092;7.006;2023-04-24T04:33:23;11.40;99.90
14908;DHT22;7545;52.092;7.006;2023-04-24T04:35:49;11.40;99.90
14908;DHT22;7545;52.092;7.006;2023-04-24T04:38:15;11.40;99.90
14908;DHT22;7545;52.092;7.006;2023-04-24T04:40:42;11.40;99.90
14908;DHT22;7545;52.092;7.006;2023-04-24T04:43:08;11.40;99.90
14908;DHT22;7545;52.092;7.006;2023-04-24T04:45:34;11.40;99.90
14908;DHT22;7545;52.092;7.006;2023-04-24T04:48:00;11.40;99.90
14908;DHT22;7545;52.092;7.006;2023-04-24T04:50:27;11.40;99.90
14908;DHT22;7545;52.092;7.006;2023-04-24T04:52:53;11.40;99.90
14908;DHT22;7545;52.092;7.006;2023-04-24T04:55:18;11.40;99.90
14908;DHT22;7545;52.092;7.006;2023-04-24T04:57:47;11.40;99.90
14908;DHT22;7545;52.092;7.006;2023-04-24T05:00:13;11.40;99.90
14908;DHT22;7545;52.092;7.006;2023-04-24T05:02:39;11.40;99.90
14908;DHT22;7545;52.092;7.006;2023-04-24T05:05:06;11.40;99.90
14908;DHT22;7545;52.092;7.006;2023-04-24T05:07:32;11.40;99.90
14908;DHT22;7545;52.092;7.006;2023-04-24T05:09:57;11.40;99.90
14908;DHT22;7545;52.092;7.006;2023-04-24T05:12:23;11.40;99.90
14908;DHT22;7545;52.092;7.006;2023-04-24T05:14:48;11.40;99.90
14908;DHT22;7545;52.092;7.006;2023-04-24T05:17:14;11.40;99.90
14908;DHT22;7545;52.092;7.006;2023-04-24T05:19:40;11.40;99.90
14908;DHT22;7545;52.092;7.006;2023-04-24T05:22:06;11.40;99.90
14908;DHT22;7545;52.092;7.006;2023-04-24T05:24:35;11.40;99.90
14908;DHT22;7545;52.092;7.006;2023-04-24T05:27:02;11.40;99.90
14908;DHT22;7545;52.092;7.006;2023-04-24T05:29:30;11.40;99.90
14908;DHT22;7545;52.092;7.006;2023-04-24T05:31:59;11.40;99.90
14908;DHT22;7545;52.092;7.006;2023-04-24T05:34:25;11.40;99.90
14908;DHT22;7545;52.092;7.006;2023-04-24T05:36:51;11.40;99.90
14908;DHT22;7545;52.092;7.006;2023-04-24T05:39:17;11.40;99.90
14908;DHT22;7545;52.092;7.006;2023-04-24T05:41:43;11.40;99.90
14908;DHT22;7545;52.092;7.006;2023-04-24T05:44:09;11.40;99.90
14908;DHT22;7545;52.092;7.006;2023-04-24T05:46:34;11.50;99.90
14908;DHT22;7545;52.092;7.006;2023-04-24T05:49:00;11.40;99.90
14908;DHT22;7545;52.092;7.006;2023-04-24T05:51:26;11.40;99.90
14908;DHT22;7545;52.092;7.006;2023-04-24T05:53:51;11.40;99.90
14908;DHT22;7545;52.092;7.006;2023-04-24T05:56:18;11.40;99.90
14908;DHT22;7545;52.092;7.006;2023-04-24T05:58:43;11.40;99.90
14908;DHT22;7545;52.092;7.006;2023-04-24T06:01:09;11.40;99.90
14908;DHT22;7545;52.092;7.006;2023-04-24T06:03:35;11.40;99.90
14908;DHT22;7545;52.092;7.006;2023-04-24T06:06:00;11.40;99.90
14908;DHT22;7545;52.092;7.006;2023-04-24T06:08:26;11.50;99.90
14908;DHT22;7545;52.092;7.006;2023-04-24T06:10:51;11.50;99.90
14908;DHT22;7545;52.092;7.006;2023-04-24T06:13:17;11.50;99.90
14908;DHT22;7545;52.092;7.006;2023-04-24T06:15:43;11.40;99.90
14908;DHT22;7545;52.092;7.006;2023-04-24T06:18:09;11.40;99.90
14908;DHT22;7545;52.092;7.006;2023-04-24T06:20:38;11.40;99.90
14908;DHT22;7545;52.092;7.006;2023-04-24T06:23:03;11.40;99.90
14908;DHT22;7545;52.092;7.006;2023-04-24T06:25:29;11.50;99.90
14908;DHT22;7545;52.092;7.006;2023-04-24T06:27:55;11.50;99.90
14908;DHT22;7545;52.092;7.006;2023-04-24T06:30:22;11.50;99.90
14908;DHT22;7545;52.092;7.006;2023-04-24T06:32:47;11.50;99.90
14908;DHT22;7545;52.092;7.006;2023-04-24T06:35:13;11.60;99.90
14908;DHT22;7545;52.092;7.006;2023-04-24T06:37:40;11.60;99.90
14908;DHT22;7545;52.092;7.006;2023-04-24T06:40:07;11.60;99.90
14908;DHT22;7545;52.092;7.006;2023-04-24T06:42:32;11.70;99.90
14908;DHT22;7545;52.092;7.006;2023-04-24T06:44:58;11.80;99.90
14908;DHT22;7545;52.092;7.006;2023-04-24T06:47:24;11.70;99.90
14908;DHT22;7545;52.092;7.006;2023-04-24T06:49:49;11.70;99.90
14908;DHT22;7545;52.092;7.006;2023-04-24T06:52:16;11.70;99.90
14908;DHT22;7545;52.092;7.006;2023-04-24T06:54:42;11.70;99.90
14908;DHT22;7545;52.092;7.006;2023-04-24T06:57:08;11.70;99.90
14908;DHT22;7545;52.092;7.006;2023-04-24T06:59:34;11.70;99.90
14908;DHT22;7545;52.092;7.006;2023-04-24T07:01:59;11.60;99.90
14908;DHT22;7545;52.092;7.006;2023-04-24T07:04:25;11.60;99.90
14908;DHT22;7545;52.092;7.006;2023-04-24T07:06:51;11.60;99.90
14908;DHT22;7545;52.092;7.006;2023-04-24T07:09:17;11.60;99.90
14908;DHT22;7545;52.092;7.006;2023-04-24T07:11:44;11.70;99.90
14908;DHT22;7545;52.092;7.006;2023-04-24T07:14:10;11.60;99.90
14908;DHT22;7545;52.092;7.006;2023-04-24T07:16:36;11.60;99.90
14908;DHT22;7545;52.092;7.006;2023-04-24T07:19:01;11.70;99.90
14908;DHT22;7545;52.092;7.006;2023-04-24T07:21:27;11.80;99.90
14908;DHT22;7545;52.092;7.006;2023-04-24T07:23:53;11.90;99.90
14908;DHT22;7545;52.092;7.006;2023-04-24T07:26:19;11.90;99.90
14908;DHT22;7545;52.092;7.006;2023-04-24T07:28:46;12.10;99.90
14908;DHT22;7545;52.092;7.006;2023-04-24T07:31:11;12.10;99.90
14908;DHT22;7545;52.092;7.006;2023-04-24T07:33:37;12.10;99.90
14908;DHT22;7545;52.092;7.006;2023-04-24T07:36:03;12.20;99.90
14908;DHT22;7545;52.092;7.006;2023-04-24T07:38:30;12.30;99.90
14908;DHT22;7545;52.092;7.006;2023-04-24T07:40:56;12.30;99.90
14908;DHT22;7545;52.092;7.006;2023-04-24T07:43:22;12.20;99.90
14908;DHT22;7545;52.092;7.006;2023-04-24T07:45:52;12.10;99.90
14908;DHT22;7545;52.092;7.006;2023-04-24T07:48:18;12.00;99.90
14908;DHT22;7545;52.092;7.006;2023-04-24T07:50:46;12.00;99.90
14908;DHT22;7545;52.092;7.006;2023-04-24T07:53:12;11.90;99.90
14908;DHT22;7545;52.092;7.006;2023-04-24T07:55:37;11.80;99.90
14908;DHT22;7545;52.092;7.006;2023-04-24T07:58:03;11.80;99.90
14908;DHT22;7545;52.092;7.006;2023-04-24T08:00:29;11.70;99.90
14908;DHT22;7545;52.092;7.006;2023-04-24T08:02:54;11.70;99.90
14908;DHT22;7545;52.092;7.006;2023-04-24T08:05:20;11.60;99.90
14908;DHT22;7545;52.092;7.006;2023-04-24T08:07:46;11.50;99.90
14908;DHT22;7545;52.092;7.006;2023-04-24T08:10:14;11.50;99.90
14908;DHT22;7545;52.092;7.006;2023-04-24T08:12:41;11.40;99.90
14908;DHT22;7545;52.092;7.006;2023-04-24T08:15:07;11.40;99.90
14908;DHT22;7545;52.092;7.006;2023-04-24T08:17:34;11.40;99.90
14908;DHT22;7545;52.092;7.006;2023-04-24T08:20:01;11.40;99.90
14908;DHT22;7545;52.092;7.006;2023-04-24T08:22:29;11.30;99.90
14908;DHT22;7545;52.092;7.006;2023-04-24T08:24:55;11.30;99.90
14908;DHT22;7545;52.092;7.006;2023-04-24T08:27:22;11.30;99.90
14908;DHT22;7545;52.092;7.006;2023-04-24T08:29:49;11.20;99.90
14908;DHT22;7545;52.092;7.006;2023-04-24T08:32:16;11.20;99.90
14908;DHT22;7545;52.092;7.006;2023-04-24T08:34:42;11.20;99.90
14908;DHT22;7545;52.092;7.006;2023-04-24T08:37:08;11.20;99.90
14908;DHT22;7545;52.092;7.006;2023-04-24T08:39:33;11.20;99.90
14908;DHT22;7545;52.092;7.006;2023-04-24T08:41:59;11.20;99.90
14908;DHT22;7545;52.092;7.006;2023-04-24T08:44:31;11.20;99.90
14908;DHT22;7545;52.092;7.006;2023-04-24T08:46:57;11.20;99.90
14908;DHT22;7545;52.092;7.006;2023-04-24T08:49:24;11.20;99.90
14908;DHT22;7545;52.092;7.006;2023-04-24T08:51:52;11.20;99.90
14908;DHT22;7545;52.092;7.006;2023-04-24T08:54:18;11.20;99.90
14908;DHT22;7545;52.092;7.006;2023-04-24T08:56:44;11.20;99.90
14908;DHT22;7545;52.092;7.006;2023-04-24T08:59:13;11.20;99.90
14908;DHT22;7545;52.092;7.006;2023-04-24T09:01:40;11.20;99.90
14908;DHT22;7545;52.092;7.006;2023-04-24T09:04:07;11.20;99.90
14908;DHT22;7545;52.092;7.006;2023-04-24T09:06:35;11.20;99.90
14908;DHT22;7545;52.092;7.006;2023-04-24T09:09:02;11.20;99.90
14908;DHT22;7545;52.092;7.006;2023-04-24T09:11:30;11.20;99.90
14908;DHT22;7545;52.092;7.006;2023-04-24T09:13:57;11.20;99.90
14908;DHT22;7545;52.092;7.006;2023-04-24T09:16:25;11.20;99.90
14908;DHT22;7545;52.092;7.006;2023-04-24T09:18:51;11.20;99.90
14908;DHT22;7545;52.092;7.006;2023-04-24T09:21:16;11.30;99.90
14908;DHT22;7545;52.092;7.006;2023-04-24T09:23:42;11.30;99.90
14908;DHT22;7545;52.092;7.006;2023-04-24T09:26:09;11.30;99.90
14908;DHT22;7545;52.092;7.006;2023-04-24T09:28:37;11.30;99.90
14908;DHT22;7545;52.092;7.006;2023-04-24T09:31:14;11.30;99.90
14908;DHT22;7545;52.092;7.006;2023-04-24T09:33:59;11.40;99.90
14908;DHT22;7545;52.092;7.006;2023-04-24T09:36:35;11.30;99.90
14908;DHT22;7545;52.092;7.006;2023-04-24T09:39:06;11.30;99.90
14908;DHT22;7545;52.092;7.006;2023-04-24T09:41:33;11.30;99.90
14908;DHT22;7545;52.092;7.006;2023-04-24T09:44:15;11.30;99.90
14908;DHT22;7545;52.092;7.006;2023-04-24T09:46:42;11.30;99.90
14908;DHT22;7545;52.092;7.006;2023-04-24T09:49:10;11.20;99.90
14908;DHT22;7545;52.092;7.006;2023-04-24T09:51:37;11.10;99.90
14908;DHT22;7545;52.092;7.006;2023-04-24T09:54:17;11.10;99.90
14908;DHT22;7545;52.092;7.006;2023-04-24T09:56:45;11.00;99.90
14908;DHT22;7545;52.092;7.006;2023-04-24T09:59:11;10.90;99.90
14908;DHT22;7545;52.092;7.006;2023-04-24T10:01:37;10.80;99.90
14908;DHT22;7545;52.092;7.006;2023-04-24T10:04:04;10.80;99.90
14908;DHT22;7545;52.092;7.006;2023-04-24T10:06:34;10.80;99.90
14908;DHT22;7545;52.092;7.006;2023-04-24T10:09:00;10.80;99.90
14908;DHT22;7545;52.092;7.006;2023-04-24T10:11:30;10.80;99.90
14908;DHT22;7545;52.092;7.006;2023-04-24T10:13:56;10.80;99.90
14908;DHT22;7545;52.092;7.006;2023-04-24T10:16:23;10.80;99.90
14908;DHT22;7545;52.092;7.006;2023-04-24T10:18:49;10.80;99.90
14908;DHT22;7545;52.092;7.006;2023-04-24T10:21:16;10.80;99.90
14908;DHT22;7545;52.092;7.006;2023-04-24T10:23:42;10.80;99.90
14908;DHT22;7545;52.092;7.006;2023-04-24T10:26:13;10.80;99.90
14908;DHT22;7545;52.092;7.006;2023-04-24T10:28:45;10.80;99.90
14908;DHT22;7545;52.092;7.006;2023-04-24T10:31:12;10.80;99.90
14908;DHT22;7545;52.092;7.006;2023-04-24T10:33:40;10.80;99.90
14908;DHT22;7545;52.092;7.006;2023-04-24T10:36:11;10.80;99.90
14908;DHT22;7545;52.092;7.006;2023-04-24T10:38:39;10.80;99.90
14908;DHT22;7545;52.092;7.006;2023-04-24T10:41:10;10.90;99.90
14908;DHT22;7545;52.092;7.006;2023-04-24T10:43:42;10.90;99.90
14908;DHT22;7545;52.092;7.006;2023-04-24T10:46:08;10.90;99.90
14908;DHT22;7545;52.092;7.006;2023-04-24T10:48:35;11.00;99.90
14908;DHT22;7545;52.092;7.006;2023-04-24T10:51:11;10.90;99.90
14908;DHT22;7545;52.092;7.006;2023-04-24T10:53:38;11.00;99.90
14908;DHT22;7545;52.092;7.006;2023-04-24T10:56:08;10.90;99.90
14908;DHT22;7545;52.092;7.006;2023-04-24T10:58:42;10.80;99.90
14908;DHT22;7545;52.092;7.006;2023-04-24T11:01:31;10.80;99.90
14908;DHT22;7545;52.092;7.006;2023-04-24T11:04:02;10.70;99.90
14908;DHT22;7545;52.092;7.006;2023-04-24T11:06:33;10.70;99.90
14908;DHT22;7545;52.092;7.006;2023-04-24T11:09:06;10.70;99.90
14908;DHT22;7545;52.092;7.006;2023-04-24T11:11:33;10.70;99.90
14908;DHT22;7545;52.092;7.006;2023-04-24T11:16:39;10.70;99.90
14908;DHT22;7545;52.092;7.006;2023-04-24T11:19:09;10.60;99.90
14908;DHT22;7545;52.092;7.006;2023-04-24T11:26:50;10.70;99.90
14908;DHT22;7545;52.092;7.006;2023-04-24T11:29:16;10.70;99.90
14908;DHT22;7545;52.092;7.006;2023-04-24T11:31:44;10.70;99.90
14908;DHT22;7545;52.092;7.006;2023-04-24T11:34:15;10.70;99.90
14908;DHT22;7545;52.092;7.006;2023-04-24T11:36:47;10.60;99.90
14908;DHT22;7545;52.092;7.006;2023-04-24T11:39:14;10.60;99.90
14908;DHT22;7545;52.092;7.006;2023-04-24T11:41:40;10.50;99.90
14908;DHT22;7545;52.092;7.006;2023-04-24T11:44:07;10.60;99.90
14908;DHT22;7545;52.092;7.006;2023-04-24T11:46:33;10.60;99.90
14908;DHT22;7545;52.092;7.006;2023-04-24T11:48:59;10.60;99.90
14908;DHT22;7545;52.092;7.006;2023-04-24T11:51:26;10.60;99.90
14908;DHT22;7545;52.092;7.006;2023-04-24T11:53:56;10.70;99.90
14908;DHT22;7545;52.092;7.006;2023-04-24T11:56:25;10.70;99.90
14908;DHT22;7545;52.092;7.006;2023-04-24T11:58:53;10.80;99.90
14908;DHT22;7545;52.092;7.006;2023-04-24T12:01:20;10.90;99.90
14908;DHT22;7545;52.092;7.006;2023-04-24T12:03:50;11.00;99.90
14908;DHT22;7545;52.092;7.006;2023-04-24T12:06:19;11.10;99.90
14908;DHT22;7545;52.092;7.006;2023-04-24T12:08:48;11.10;99.90
14908;DHT22;7545;52.092;7.006;2023-04-24T12:11:15;11.20;99.90
14908;DHT22;7545;52.092;7.006;2023-04-24T12:13:43;11.30;99.90
14908;DHT22;7545;52.092;7.006;2023-04-24T12:16:08;11.30;99.90
14908;DHT22;7545;52.092;7.006;2023-04-24T12:18:34;11.30;99.90
14908;DHT22;7545;52.092;7.006;2023-04-24T12:21:19;11.40;99.90
14908;DHT22;7545;52.092;7.006;2023-04-24T12:23:46;11.50;99.90
14908;DHT22;7545;52.092;7.006;2023-04-24T12:26:20;11.50;99.90
14908;DHT22;7545;52.092;7.006;2023-04-24T12:28:49;11.60;99.90
14908;DHT22;7545;52.092;7.006;2023-04-24T12:31:16;11.60;99.90
14908;DHT22;7545;52.092;7.006;2023-04-24T12:33:41;11.70;99.90
14908;DHT22;7545;52.092;7.006;2023-04-24T12:36:10;11.80;99.90
14908;DHT22;7545;52.092;7.006;2023-04-24T12:38:39;11.80;99.90
14908;DHT22;7545;52.092;7.006;2023-04-24T12:41:12;11.90;99.90
14908;DHT22;7545;52.092;7.006;2023-04-24T12:43:53;12.00;99.90
14908;DHT22;7545;52.092;7.006;2023-04-24T12:46:20;11.90;99.90
14908;DHT22;7545;52.092;7.006;2023-04-24T12:48:45;12.00;99.90
14908;DHT22;7545;52.092;7.006;2023-04-24T12:51:11;11.90;99.90
14908;DHT22;7545;52.092;7.006;2023-04-24T12:53:36;11.90;99.90
14908;DHT22;7545;52.092;7.006;2023-04-24T12:56:02;11.80;99.90
14908;DHT22;7545;52.092;7.006;2023-04-24T12:58:28;11.70;99.90
14908;DHT22;7545;52.092;7.006;2023-04-24T13:00:53;11.60;99.90
14908;DHT22;7545;52.092;7.006;2023-04-24T13:03:19;11.60;99.90
14908;DHT22;7545;52.092;7.006;2023-04-24T13:05:45;11.50;99.90
14908;DHT22;7545;52.092;7.006;2023-04-24T13:08:11;11.50;99.90
14908;DHT22;7545;52.092;7.006;2023-04-24T13:10:38;11.50;99.90
14908;DHT22;7545;52.092;7.006;2023-04-24T13:13:04;11.50;99.90
14908;DHT22;7545;52.092;7.006;2023-04-24T13:15:30;11.50;99.90
14908;DHT22;7545;52.092;7.006;2023-04-24T13:17:55;11.50;99.90
14908;DHT22;7545;52.092;7.006;2023-04-24T13:20:21;11.60;99.90
14908;DHT22;7545;52.092;7.006;2023-04-24T13:22:47;11.70;99.90
14908;DHT22;7545;52.092;7.006;2023-04-24T13:25:12;11.70;99.90
14908;DHT22;7545;52.092;7.006;2023-04-24T13:27:38;11.80;99.90
14908;DHT22;7545;52.092;7.006;2023-04-24T13:30:05;11.80;99.90
14908;DHT22;7545;52.092;7.006;2023-04-24T13:32:32;11.70;99.90
14908;DHT22;7545;52.092;7.006;2023-04-24T13:34:58;11.70;99.90
14908;DHT22;7545;52.092;7.006;2023-04-24T13:37:24;11.60;99.90
14908;DHT22;7545;52.092;7.006;2023-04-24T13:39:49;11.60;99.90
14908;DHT22;7545;52.092;7.006;2023-04-24T13:42:16;11.50;99.90
14908;DHT22;7545;52.092;7.006;2023-04-24T13:44:41;11.50;99.90
14908;DHT22;7545;52.092;7.006;2023-04-24T13:47:07;11.50;99.90
14908;DHT22;7545;52.092;7.006;2023-04-24T13:49:32;11.40;99.90
14908;DHT22;7545;52.092;7.006;2023-04-24T13:51:58;11.50;99.90
14908;DHT22;7545;52.092;7.006;2023-04-24T13:54:24;11.50;99.90
14908;DHT22;7545;52.092;7.006;2023-04-24T13:56:51;11.40;99.90
14908;DHT22;7545;52.092;7.006;2023-04-24T13:59:17;11.50;99.90
14908;DHT22;7545;52.092;7.006;2023-04-24T14:01:44;11.40;99.90
14908;DHT22;7545;52.092;7.006;2023-04-24T14:04:10;11.50;99.90
14908;DHT22;7545;52.092;7.006;2023-04-24T14:06:36;11.50;99.90
14908;DHT22;7545;52.092;7.006;2023-04-24T14:09:02;11.50;99.90
14908;DHT22;7545;52.092;7.006;2023-04-24T14:11:27;11.40;99.90
14908;DHT22;7545;52.092;7.006;2023-04-24T14:13:54;11.40;99.90
14908;DHT22;7545;52.092;7.006;2023-04-24T14:16:21;11.40;99.90
14908;DHT22;7545;52.092;7.006;2023-04-24T14:18:47;11.30;99.90
14908;DHT22;7545;52.092;7.006;2023-04-24T14:21:13;11.30;99.90
14908;DHT22;7545;52.092;7.006;2023-04-24T14:23:38;11.30;99.90
14908;DHT22;7545;52.092;7.006;2023-04-24T14:26:04;11.40;99.90
14908;DHT22;7545;52.092;7.006;2023-04-24T14:28:30;11.40;99.90
14908;DHT22;7545;52.092;7.006;2023-04-24T14:30:55;11.50;99.90
14908;DHT22;7545;52.092;7.006;2023-04-24T14:33:21;11.50;99.90
14908;DHT22;7545;52.092;7.006;2023-04-24T14:35:47;11.40;99.90
14908;DHT22;7545;52.092;7.006;2023-04-24T14:38:13;11.50;99.90
14908;DHT22;7545;52.092;7.006;2023-04-24T14:40:39;11.60;99.90
14908;DHT22;7545;52.092;7.006;2023-04-24T14:43:05;11.60;99.90
14908;DHT22;7545;52.092;7.006;2023-04-24T14:45:30;11.60;99.90
14908;DHT22;7545;52.092;7.006;2023-04-24T14:47:57;11.50;99.90
14908;DHT22;7545;52.092;7.006;2023-04-24T14:50:22;11.50;99.90
14908;DHT22;7545;52.092;7.006;2023-04-24T14:52:48;11.40;99.90
14908;DHT22;7545;52.092;7.006;2023-04-24T14:55:14;11.30;99.90
14908;DHT22;7545;52.092;7.006;2023-04-24T14:57:40;11.20;99.90
14908;DHT22;7545;52.092;7.006;2023-04-24T15:00:06;11.10;99.90
14908;DHT22;7545;52.092;7.006;2023-04-24T15:02:34;11.00;99.90
14908;DHT22;7545;52.092;7.006;2023-04-24T15:05:02;10.90;99.90
14908;DHT22;7545;52.092;7.006;2023-04-24T15:07:27;10.90;99.90
14908;DHT22;7545;52.092;7.006;2023-04-24T15:09:53;10.90;99.90
14908;DHT22;7545;52.092;7.006;2023-04-24T15:12:19;10.90;99.90
14908;DHT22;7545;52.092;7.006;2023-04-24T15:14:44;11.00;99.90
14908;DHT22;7545;52.092;7.006;2023-04-24T15:17:10;11.10;99.90
14908;DHT22;7545;52.092;7.006;2023-04-24T15:19:35;11.10;99.90
14908;DHT22;7545;52.092;7.006;2023-04-24T15:22:01;11.10;99.90
14908;DHT22;7545;52.092;7.006;2023-04-24T15:24:26;11.20;99.90
14908;DHT22;7545;52.092;7.006;2023-04-24T15:26:55;11.40;99.90
14908;DHT22;7545;52.092;7.006;2023-04-24T15:29:24;11.50;99.90
14908;DHT22;7545;52.092;7.006;2023-04-24T15:31:50;11.60;99.90
14908;DHT22;7545;52.092;7.006;2023-04-24T15:34:16;11.70;99.90
14908;DHT22;7545;52.092;7.006;2023-04-24T15:36:41;11.80;99.90
14908;DHT22;7545;52.092;7.006;2023-04-24T15:39:07;11.90;99.90
14908;DHT22;7545;52.092;7.006;2023-04-24T15:41:33;11.90;99.90
14908;DHT22;7545;52.092;7.006;2023-04-24T15:43:59;11.80;99.90
14908;DHT22;7545;52.092;7.006;2023-04-24T15:46:25;11.80;99.90
14908;DHT22;7545;52.092;7.006;2023-04-24T15:48:51;11.70;99.90